createdAt,value
2017-11-13T00:00:40.871Z,980.19
2017-11-13T00:01:40.842Z,980.19
2017-11-13T00:02:40.825Z,980.21
2017-11-13T00:03:40.794Z,980.21
2017-11-13T00:04:40.769Z,980.16
2017-11-13T00:05:40.746Z,980.21
2017-11-13T00:06:40.719Z,980.18
2017-11-13T00:07:40.700Z,980.21
2017-11-13T00:08:40.671Z,980.20
2017-11-13T00:09:40.644Z,980.17
2017-11-13T00:10:40.624Z,980.18
2017-11-13T00:11:40.598Z,980.17
2017-11-13T00:12:40.574Z,980.17
2017-11-13T00:13:40.556Z,980.17
2017-11-13T00:14:40.528Z,980.20
2017-11-13T00:15:40.505Z,980.24
2017-11-13T00:16:40.525Z,980.22
2017-11-13T00:17:40.451Z,980.24
2017-11-13T00:18:40.429Z,980.28
2017-11-13T00:19:40.402Z,980.26
2017-11-13T00:20:40.379Z,980.28
2017-11-13T00:21:40.357Z,980.29
2017-11-13T00:22:40.330Z,980.32
2017-11-13T00:23:40.309Z,980.34
2017-11-13T00:24:40.282Z,980.38
2017-11-13T00:25:40.256Z,980.35
2017-11-13T00:26:40.231Z,980.37
2017-11-13T00:27:40.209Z,980.43
2017-11-13T00:28:40.186Z,980.41
2017-11-13T00:29:40.164Z,980.45
2017-11-13T00:30:40.140Z,980.49
2017-11-13T00:31:40.109Z,980.46
2017-11-13T00:32:40.090Z,980.51
2017-11-13T00:33:40.059Z,980.53
2017-11-13T00:34:40.035Z,980.54
2017-11-13T00:35:40.011Z,980.56
2017-11-13T00:36:39.988Z,980.61
2017-11-13T00:37:39.974Z,980.67
2017-11-13T00:38:39.940Z,980.74
2017-11-13T00:39:39.913Z,980.72
2017-11-13T00:40:39.904Z,980.75
2017-11-13T00:41:39.885Z,980.76
2017-11-13T00:42:39.844Z,980.76
2017-11-13T00:43:39.818Z,980.78
2017-11-13T00:44:39.792Z,980.85
2017-11-13T00:45:39.782Z,980.84
2017-11-13T00:46:39.752Z,980.92
2017-11-13T00:47:39.717Z,980.91
2017-11-13T00:48:39.694Z,980.92
2017-11-13T00:49:39.674Z,980.95
2017-11-13T00:50:39.653Z,980.94
2017-11-13T00:51:39.624Z,980.93
2017-11-13T00:52:39.598Z,980.97
2017-11-13T00:53:39.602Z,980.98
2017-11-13T00:54:39.548Z,981.00
2017-11-13T00:55:39.537Z,980.99
2017-11-13T00:56:39.501Z,980.98
2017-11-13T00:57:39.475Z,980.99
2017-11-13T00:58:39.451Z,981.00
2017-11-13T00:59:39.432Z,980.98
2017-11-13T01:00:39.398Z,981.02
2017-11-13T01:02:15.318Z,981.05
2017-11-13T01:02:39.353Z,981.02
2017-11-13T01:03:39.333Z,981.03
2017-11-13T01:04:39.307Z,981.04
2017-11-13T01:05:39.280Z,981.06
2017-11-13T01:06:39.259Z,981.07
2017-11-13T01:07:39.233Z,981.06
2017-11-13T01:08:39.214Z,981.06
2017-11-13T01:09:39.183Z,981.04
2017-11-13T01:10:39.163Z,981.06
2017-11-13T01:11:39.137Z,981.01
2017-11-13T01:12:39.110Z,981.07
2017-11-13T01:13:39.083Z,981.03
2017-11-13T01:14:39.068Z,981.06
2017-11-13T01:15:39.033Z,981.05
2017-11-13T01:16:39.012Z,981.06
2017-11-13T01:17:38.989Z,981.04
2017-11-13T01:18:38.963Z,981.04
2017-11-13T01:19:38.943Z,981.07
2017-11-13T01:20:38.912Z,981.04
2017-11-13T01:21:38.887Z,981.03
2017-11-13T01:22:38.862Z,981.04
2017-11-13T01:23:38.844Z,981.07
2017-11-13T01:24:38.818Z,981.03
2017-11-13T01:25:38.789Z,981.01
2017-11-13T01:26:38.764Z,981.00
2017-11-13T01:27:38.774Z,980.97
2017-11-13T01:28:38.716Z,980.99
2017-11-13T01:29:38.703Z,980.96
2017-11-13T01:30:38.673Z,980.99
2017-11-13T01:31:38.701Z,980.96
2017-11-13T01:32:38.626Z,980.97
2017-11-13T01:33:38.592Z,981.00
2017-11-13T01:34:38.576Z,980.92
2017-11-13T01:35:38.545Z,981.01
2017-11-13T01:36:38.528Z,980.98
2017-11-13T01:37:38.511Z,981.02
2017-11-13T01:38:38.469Z,981.04
2017-11-13T01:39:38.448Z,981.11
2017-11-13T01:40:38.438Z,981.14
2017-11-13T01:41:38.403Z,981.11
2017-11-13T01:42:38.381Z,981.15
2017-11-13T01:43:38.355Z,981.19
2017-11-13T01:44:38.328Z,981.19
2017-11-13T01:45:38.306Z,981.20
2017-11-13T01:46:38.277Z,981.20
2017-11-13T01:47:38.255Z,981.22
2017-11-13T01:48:38.230Z,981.25
2017-11-13T01:49:38.210Z,981.24
2017-11-13T01:50:38.185Z,981.31
2017-11-13T01:51:38.155Z,981.31
2017-11-13T01:52:38.139Z,981.34
2017-11-13T01:53:38.119Z,981.39
2017-11-13T01:54:38.082Z,981.34
2017-11-13T01:55:38.057Z,981.36
2017-11-13T01:56:38.034Z,981.42
2017-11-13T01:57:38.013Z,981.42
2017-11-13T01:58:37.986Z,981.36
2017-11-13T01:59:37.961Z,981.36
2017-11-13T02:00:37.942Z,981.35
2017-11-13T02:01:37.917Z,981.36
2017-11-13T02:02:37.928Z,981.36
2017-11-13T02:03:37.885Z,981.39
2017-11-13T02:04:37.840Z,981.39
2017-11-13T02:05:37.820Z,981.40
2017-11-13T02:06:37.799Z,981.38
2017-11-13T02:07:37.765Z,981.40
2017-11-13T02:08:37.773Z,981.38
2017-11-13T02:09:37.718Z,981.42
2017-11-13T02:10:37.691Z,981.41
2017-11-13T02:11:37.669Z,981.35
2017-11-13T02:12:37.642Z,981.42
2017-11-13T02:13:37.619Z,981.42
2017-11-13T02:14:37.608Z,981.42
2017-11-13T02:15:37.567Z,981.42
2017-11-13T02:16:37.555Z,981.46
2017-11-13T02:17:37.525Z,981.49
2017-11-13T02:18:37.502Z,981.48
2017-11-13T02:19:37.476Z,981.48
2017-11-13T02:20:37.452Z,981.50
2017-11-13T02:21:37.423Z,981.54
2017-11-13T02:22:37.401Z,981.58
2017-11-13T02:23:37.374Z,981.56
2017-11-13T02:24:37.361Z,981.59
2017-11-13T02:25:37.325Z,981.68
2017-11-13T02:26:37.316Z,981.63
2017-11-13T02:27:37.292Z,981.67
2017-11-13T02:28:37.259Z,981.71
2017-11-13T02:29:37.245Z,981.69
2017-11-13T02:30:37.204Z,981.74
2017-11-13T02:31:37.182Z,981.78
2017-11-13T02:32:37.158Z,981.77
2017-11-13T02:33:37.128Z,981.80
2017-11-13T02:34:37.111Z,981.78
2017-11-13T02:35:37.083Z,981.83
2017-11-13T02:36:37.057Z,981.85
2017-11-13T02:37:37.033Z,981.84
2017-11-13T02:38:37.011Z,981.86
2017-11-13T02:39:36.987Z,981.88
2017-11-13T02:40:36.958Z,981.88
2017-11-13T02:41:36.944Z,981.88
2017-11-13T02:42:36.908Z,981.93
2017-11-13T02:43:36.888Z,981.93
2017-11-13T02:44:36.862Z,981.98
2017-11-13T02:45:36.844Z,982.02
2017-11-13T02:46:36.855Z,982.01
2017-11-13T02:47:36.790Z,982.05
2017-11-13T02:48:36.766Z,982.06
2017-11-13T02:49:36.750Z,982.06
2017-11-13T02:50:36.712Z,982.07
2017-11-13T02:51:36.689Z,982.09
2017-11-13T02:52:36.667Z,982.05
2017-11-13T02:53:36.647Z,982.05
2017-11-13T02:54:36.627Z,982.05
2017-11-13T02:55:36.593Z,982.09
2017-11-13T02:56:36.572Z,982.09
2017-11-13T02:57:36.544Z,982.10
2017-11-13T02:58:36.517Z,982.12
2017-11-13T02:59:36.493Z,982.17
2017-11-13T03:00:36.477Z,982.14
2017-11-13T03:01:36.450Z,982.15
2017-11-13T03:02:43.339Z,982.14
2017-11-13T03:03:36.396Z,982.17
2017-11-13T03:04:36.380Z,982.21
2017-11-13T03:05:36.353Z,982.25
2017-11-13T03:06:36.324Z,982.23
2017-11-13T03:07:36.300Z,982.30
2017-11-13T03:08:36.275Z,982.28
2017-11-13T03:09:36.256Z,982.28
2017-11-13T03:10:36.224Z,982.32
2017-11-13T03:11:36.206Z,982.32
2017-11-13T03:12:36.177Z,982.35
2017-11-13T03:13:36.166Z,982.40
2017-11-13T03:14:36.134Z,982.37
2017-11-13T03:15:36.102Z,982.38
2017-11-13T03:16:36.085Z,982.41
2017-11-13T03:17:36.057Z,982.44
2017-11-13T03:18:36.028Z,982.46
2017-11-13T03:19:36.009Z,982.46
2017-11-13T03:20:35.983Z,982.45
2017-11-13T03:21:35.956Z,982.48
2017-11-13T03:22:35.936Z,982.48
2017-11-13T03:23:35.911Z,982.53
2017-11-13T03:24:35.884Z,982.54
2017-11-13T03:25:35.861Z,982.58
2017-11-13T03:26:35.834Z,982.59
2017-11-13T03:27:35.821Z,982.60
2017-11-13T03:28:35.789Z,982.60
2017-11-13T03:29:35.765Z,982.59
2017-11-13T03:30:35.741Z,982.63
2017-11-13T03:31:35.714Z,982.65
2017-11-13T03:32:35.687Z,982.63
2017-11-13T03:33:35.668Z,982.70
2017-11-13T03:34:35.642Z,982.69
2017-11-13T03:35:35.615Z,982.70
2017-11-13T03:36:35.597Z,982.72
2017-11-13T03:37:35.566Z,982.74
2017-11-13T03:38:35.544Z,982.78
2017-11-13T03:39:35.519Z,982.79
2017-11-13T03:40:35.501Z,982.78
2017-11-13T03:41:35.476Z,982.81
2017-11-13T03:42:35.448Z,982.82
2017-11-13T03:43:35.424Z,982.87
2017-11-13T03:44:35.393Z,982.87
2017-11-13T03:45:35.376Z,982.85
2017-11-13T03:46:35.347Z,982.93
2017-11-13T03:47:35.325Z,982.98
2017-11-13T03:48:35.302Z,983.00
2017-11-13T03:49:35.276Z,982.97
2017-11-13T03:50:35.249Z,983.03
2017-11-13T03:51:35.237Z,983.07
2017-11-13T03:52:35.213Z,983.04
2017-11-13T03:53:35.185Z,983.06
2017-11-13T03:54:35.158Z,983.10
2017-11-13T03:55:35.134Z,983.14
2017-11-13T03:56:35.108Z,983.14
2017-11-13T03:57:35.078Z,983.21
2017-11-13T03:58:35.056Z,983.22
2017-11-13T03:59:35.030Z,983.24
2017-11-13T04:00:35.006Z,983.32
2017-11-13T04:01:35.018Z,983.33
2017-11-13T04:02:34.960Z,983.33
2017-11-13T04:03:58.854Z,983.37
2017-11-13T04:04:34.917Z,983.37
2017-11-13T04:05:34.896Z,983.43
2017-11-13T04:06:34.861Z,983.44
2017-11-13T04:07:34.838Z,983.47
2017-11-13T04:08:34.818Z,983.53
2017-11-13T04:09:34.797Z,983.50
2017-11-13T04:10:34.767Z,983.52
2017-11-13T04:11:34.738Z,983.56
2017-11-13T04:12:34.719Z,983.56
2017-11-13T04:13:34.690Z,983.60
2017-11-13T04:14:34.677Z,983.64
2017-11-13T04:15:34.644Z,983.62
2017-11-13T04:16:34.620Z,983.65
2017-11-13T04:17:34.598Z,983.67
2017-11-13T04:18:34.570Z,983.66
2017-11-13T04:19:34.546Z,983.70
2017-11-13T04:20:34.523Z,983.74
2017-11-13T04:21:34.502Z,983.78
2017-11-13T04:22:34.477Z,983.79
2017-11-13T04:23:34.446Z,983.81
2017-11-13T04:24:34.425Z,983.82
2017-11-13T04:25:34.400Z,983.80
2017-11-13T04:26:34.373Z,983.79
2017-11-13T04:27:34.354Z,983.84
2017-11-13T04:28:34.324Z,983.87
2017-11-13T04:29:34.303Z,983.91
2017-11-13T04:30:34.281Z,983.91
2017-11-13T04:31:34.253Z,983.90
2017-11-13T04:32:34.229Z,983.87
2017-11-13T04:33:34.204Z,983.87
2017-11-13T04:34:34.185Z,983.93
2017-11-13T04:35:34.161Z,983.89
2017-11-13T04:36:34.131Z,983.90
2017-11-13T04:37:34.109Z,983.90
2017-11-13T04:38:34.114Z,983.88
2017-11-13T04:39:34.102Z,983.96
2017-11-13T04:40:34.043Z,983.94
2017-11-13T04:41:34.018Z,983.97
2017-11-13T04:42:33.985Z,983.99
2017-11-13T04:43:33.974Z,984.02
2017-11-13T04:44:33.934Z,984.04
2017-11-13T04:45:33.920Z,984.07
2017-11-13T04:46:33.889Z,984.03
2017-11-13T04:47:33.870Z,984.05
2017-11-13T04:48:33.841Z,984.08
2017-11-13T04:49:33.814Z,984.08
2017-11-13T04:50:33.791Z,984.13
2017-11-13T04:51:33.766Z,984.15
2017-11-13T04:52:33.745Z,984.13
2017-11-13T04:53:33.718Z,984.15
2017-11-13T04:54:33.692Z,984.16
2017-11-13T04:55:33.669Z,984.20
2017-11-13T04:56:33.651Z,984.23
2017-11-13T04:57:33.620Z,984.22
2017-11-13T04:58:33.595Z,984.24
2017-11-13T04:59:33.567Z,984.19
2017-11-13T05:00:33.563Z,984.16
2017-11-13T05:01:33.531Z,984.18
2017-11-13T05:02:33.506Z,984.18
2017-11-13T05:03:33.477Z,984.23
2017-11-13T05:04:33.455Z,984.23
2017-11-13T05:05:33.428Z,984.22
2017-11-13T05:06:33.403Z,984.17
2017-11-13T05:07:33.376Z,984.18
2017-11-13T05:08:33.356Z,984.17
2017-11-13T05:09:33.330Z,984.14
2017-11-13T05:10:33.335Z,984.14
2017-11-13T05:11:33.287Z,984.17
2017-11-13T05:12:33.255Z,984.17
2017-11-13T05:13:33.242Z,984.18
2017-11-13T05:14:33.215Z,984.17
2017-11-13T05:15:33.194Z,984.20
2017-11-13T05:16:33.159Z,984.19
2017-11-13T05:17:33.206Z,984.22
2017-11-13T05:18:33.109Z,984.18
2017-11-13T05:19:33.088Z,984.19
2017-11-13T05:20:33.062Z,984.18
2017-11-13T05:21:33.041Z,984.17
2017-11-13T05:22:33.011Z,984.20
2017-11-13T05:23:32.988Z,984.22
2017-11-13T05:24:32.965Z,984.24
2017-11-13T05:25:32.958Z,984.24
2017-11-13T05:26:32.918Z,984.24
2017-11-13T05:27:32.899Z,984.24
2017-11-13T05:28:32.890Z,984.23
2017-11-13T05:29:32.844Z,984.22
2017-11-13T05:30:32.821Z,984.19
2017-11-13T05:31:32.793Z,984.21
2017-11-13T05:32:32.771Z,984.22
2017-11-13T05:33:32.752Z,984.19
2017-11-13T05:34:32.720Z,984.21
2017-11-13T05:35:32.721Z,984.22
2017-11-13T05:36:32.684Z,984.22
2017-11-13T05:37:32.650Z,984.24
2017-11-13T05:38:32.631Z,984.25
2017-11-13T05:39:32.599Z,984.26
2017-11-13T05:40:32.593Z,984.27
2017-11-13T05:41:32.559Z,984.25
2017-11-13T05:42:32.529Z,984.29
2017-11-13T05:43:32.504Z,984.33
2017-11-13T05:44:32.480Z,984.35
2017-11-13T05:45:32.455Z,984.38
2017-11-13T05:46:32.433Z,984.42
2017-11-13T05:47:32.405Z,984.47
2017-11-13T05:48:32.392Z,984.47
2017-11-13T05:49:32.359Z,984.45
2017-11-13T05:50:32.331Z,984.49
2017-11-13T05:51:32.318Z,984.47
2017-11-13T05:52:32.285Z,984.49
2017-11-13T05:53:32.274Z,984.48
2017-11-13T05:54:32.278Z,984.48
2017-11-13T05:55:32.218Z,984.48
2017-11-13T05:56:32.197Z,984.52
2017-11-13T05:57:32.179Z,984.56
2017-11-13T05:58:32.138Z,984.60
2017-11-13T05:59:32.116Z,984.60
2017-11-13T06:00:32.096Z,984.60
2017-11-13T06:01:32.081Z,984.62
2017-11-13T06:02:32.041Z,984.62
2017-11-13T06:03:32.018Z,984.61
2017-11-13T06:04:55.896Z,984.66
2017-11-13T06:05:31.967Z,984.66
2017-11-13T06:06:31.948Z,984.65
2017-11-13T06:07:31.922Z,984.65
2017-11-13T06:08:31.901Z,984.71
2017-11-13T06:09:31.871Z,984.69
2017-11-13T06:10:31.847Z,984.71
2017-11-13T06:11:31.847Z,984.68
2017-11-13T06:12:31.805Z,984.69
2017-11-13T06:13:31.776Z,984.71
2017-11-13T06:14:31.757Z,984.71
2017-11-13T06:15:31.725Z,984.77
2017-11-13T06:16:31.703Z,984.77
2017-11-13T06:17:31.679Z,984.76
2017-11-13T06:18:31.661Z,984.79
2017-11-13T06:19:31.638Z,984.81
2017-11-13T06:20:31.609Z,984.83
2017-11-13T06:21:31.582Z,984.84
2017-11-13T06:22:31.572Z,984.84
2017-11-13T06:23:31.547Z,984.88
2017-11-13T06:24:31.518Z,984.88
2017-11-13T06:25:31.491Z,984.89
2017-11-13T06:26:31.460Z,984.90
2017-11-13T06:27:31.436Z,984.91
2017-11-13T06:28:31.412Z,984.98
2017-11-13T06:29:31.385Z,984.96
2017-11-13T06:30:31.420Z,984.96
2017-11-13T06:31:31.339Z,984.97
2017-11-13T06:32:31.350Z,985.01
2017-11-13T06:33:31.289Z,984.99
2017-11-13T06:34:31.270Z,985.02
2017-11-13T06:35:31.253Z,985.05
2017-11-13T06:36:31.216Z,985.11
2017-11-13T06:37:31.195Z,985.09
2017-11-13T06:38:31.206Z,985.12
2017-11-13T06:39:31.150Z,985.15
2017-11-13T06:40:31.128Z,985.20
2017-11-13T06:41:31.095Z,985.22
2017-11-13T06:42:31.091Z,985.20
2017-11-13T06:43:31.049Z,985.24
2017-11-13T06:44:31.043Z,985.24
2017-11-13T06:45:31.005Z,985.23
2017-11-13T06:46:30.988Z,985.23
2017-11-13T06:47:30.953Z,985.23
2017-11-13T06:48:30.926Z,985.27
2017-11-13T06:49:30.903Z,985.27
2017-11-13T06:50:30.880Z,985.29
2017-11-13T06:51:30.851Z,985.25
2017-11-13T06:52:30.831Z,985.30
2017-11-13T06:53:30.838Z,985.32
2017-11-13T06:54:30.778Z,985.35
2017-11-13T06:55:30.755Z,985.37
2017-11-13T06:56:30.730Z,985.43
2017-11-13T06:57:30.718Z,985.41
2017-11-13T06:58:30.690Z,985.40
2017-11-13T06:59:30.662Z,985.50
2017-11-13T07:00:30.635Z,985.49
2017-11-13T07:01:30.609Z,985.51
2017-11-13T07:02:30.585Z,985.57
2017-11-13T07:03:30.566Z,985.60
2017-11-13T07:04:30.537Z,985.62
2017-11-13T07:05:30.519Z,985.63
2017-11-13T07:06:30.500Z,985.68
2017-11-13T07:07:30.471Z,985.75
2017-11-13T07:08:30.458Z,985.73
2017-11-13T07:09:30.420Z,985.73
2017-11-13T07:10:30.442Z,985.76
2017-11-13T07:11:30.375Z,985.77
2017-11-13T07:12:30.344Z,985.78
2017-11-13T07:13:30.327Z,985.78
2017-11-13T07:14:30.297Z,985.79
2017-11-13T07:15:30.272Z,985.76
2017-11-13T07:16:30.251Z,985.82
2017-11-13T07:17:30.221Z,985.81
2017-11-13T07:18:30.197Z,985.84
2017-11-13T07:19:30.181Z,985.87
2017-11-13T07:20:30.154Z,985.90
2017-11-13T07:21:30.132Z,985.92
2017-11-13T07:22:30.102Z,985.93
2017-11-13T07:23:30.079Z,985.95
2017-11-13T07:24:30.064Z,985.98
2017-11-13T07:25:30.033Z,985.94
2017-11-13T07:26:30.004Z,986.01
2017-11-13T07:27:29.979Z,986.04
2017-11-13T07:28:29.959Z,986.03
2017-11-13T07:29:29.933Z,986.08
2017-11-13T07:30:29.917Z,986.12
2017-11-13T07:31:29.881Z,986.14
2017-11-13T07:32:29.865Z,986.15
2017-11-13T07:33:29.841Z,986.17
2017-11-13T07:34:29.809Z,986.19
2017-11-13T07:35:36.401Z,986.20
2017-11-13T07:36:29.768Z,986.24
2017-11-13T07:37:29.741Z,986.25
2017-11-13T07:38:29.719Z,986.25
2017-11-13T07:39:29.696Z,986.34
2017-11-13T07:40:29.666Z,986.31
2017-11-13T07:41:29.649Z,986.39
2017-11-13T07:42:29.624Z,986.38
2017-11-13T07:43:29.597Z,986.42
2017-11-13T07:44:29.575Z,986.40
2017-11-13T07:45:29.577Z,986.46
2017-11-13T07:46:29.526Z,986.49
2017-11-13T07:47:29.537Z,986.47
2017-11-13T07:48:29.528Z,986.46
2017-11-13T07:49:29.456Z,986.54
2017-11-13T07:50:29.425Z,986.52
2017-11-13T07:51:29.400Z,986.58
2017-11-13T07:52:29.375Z,986.58
2017-11-13T07:53:29.364Z,986.63
2017-11-13T07:54:29.328Z,986.69
2017-11-13T07:55:29.303Z,986.70
2017-11-13T07:56:29.288Z,986.76
2017-11-13T07:57:29.258Z,986.75
2017-11-13T07:58:29.238Z,986.79
2017-11-13T07:59:29.204Z,986.82
2017-11-13T08:00:29.190Z,986.86
2017-11-13T08:01:29.161Z,986.85
2017-11-13T08:02:29.134Z,986.88
2017-11-13T08:03:29.131Z,986.84
2017-11-13T08:04:29.090Z,986.85
2017-11-13T08:05:29.064Z,986.85
2017-11-13T08:06:29.043Z,986.88
2017-11-13T08:07:29.013Z,986.88
2017-11-13T08:08:28.987Z,986.88
2017-11-13T08:09:28.965Z,986.83
2017-11-13T08:10:28.942Z,986.85
2017-11-13T08:11:28.919Z,986.80
2017-11-13T08:12:28.909Z,986.81
2017-11-13T08:13:28.877Z,986.79
2017-11-13T08:14:28.846Z,986.80
2017-11-13T08:15:28.827Z,986.80
2017-11-13T08:16:28.798Z,986.83
2017-11-13T08:17:28.801Z,986.83
2017-11-13T08:18:28.745Z,986.84
2017-11-13T08:19:28.725Z,986.83
2017-11-13T08:20:28.699Z,986.89
2017-11-13T08:21:28.675Z,986.92
2017-11-13T08:22:28.650Z,986.91
2017-11-13T08:23:28.626Z,986.94
2017-11-13T08:24:28.606Z,986.92
2017-11-13T08:25:28.615Z,986.97
2017-11-13T08:26:28.603Z,986.94
2017-11-13T08:27:28.540Z,986.97
2017-11-13T08:28:28.517Z,986.95
2017-11-13T08:29:28.485Z,986.91
2017-11-13T08:30:28.461Z,986.96
2017-11-13T08:31:28.437Z,986.99
2017-11-13T08:32:28.409Z,986.96
2017-11-13T08:33:28.386Z,986.98
2017-11-13T08:34:28.376Z,987.01
2017-11-13T08:35:28.339Z,986.98
2017-11-13T08:36:28.316Z,986.97
2017-11-13T08:37:28.292Z,986.96
2017-11-13T08:38:28.271Z,987.03
2017-11-13T08:39:28.246Z,987.07
2017-11-13T08:40:28.224Z,987.09
2017-11-13T08:41:28.197Z,987.11
2017-11-13T08:42:28.178Z,987.16
2017-11-13T08:43:28.147Z,987.16
2017-11-13T08:44:28.123Z,987.18
2017-11-13T08:45:28.102Z,987.21
2017-11-13T08:46:28.076Z,987.24
2017-11-13T08:47:28.060Z,987.24
2017-11-13T08:48:28.030Z,987.28
2017-11-13T08:49:28.012Z,987.32
2017-11-13T08:50:27.978Z,987.35
2017-11-13T08:51:27.956Z,987.35
2017-11-13T08:52:27.935Z,987.39
2017-11-13T08:53:27.908Z,987.42
2017-11-13T08:54:27.887Z,987.41
2017-11-13T08:55:27.860Z,987.43
2017-11-13T08:56:27.836Z,987.45
2017-11-13T08:57:27.817Z,987.49
2017-11-13T08:58:27.785Z,987.49
2017-11-13T08:59:27.764Z,987.43
2017-11-13T09:00:27.740Z,987.48
2017-11-13T09:01:27.722Z,987.47
2017-11-13T09:02:27.696Z,987.45
2017-11-13T09:03:27.666Z,987.51
2017-11-13T09:04:27.709Z,987.47
2017-11-13T09:05:27.623Z,987.51
2017-11-13T09:06:34.413Z,987.49
2017-11-13T09:07:27.577Z,987.53
2017-11-13T09:08:27.549Z,987.52
2017-11-13T09:09:27.533Z,987.54
2017-11-13T09:10:27.508Z,987.55
2017-11-13T09:11:27.474Z,987.56
2017-11-13T09:12:27.458Z,987.56
2017-11-13T09:13:27.429Z,987.63
2017-11-13T09:14:27.405Z,987.67
2017-11-13T09:15:27.389Z,987.66
2017-11-13T09:16:27.355Z,987.72
2017-11-13T09:17:27.344Z,987.74
2017-11-13T09:18:27.310Z,987.74
2017-11-13T09:19:27.287Z,987.76
2017-11-13T09:20:27.267Z,987.75
2017-11-13T09:21:27.241Z,987.78
2017-11-13T09:22:27.214Z,987.81
2017-11-13T09:23:27.190Z,987.82
2017-11-13T09:24:27.170Z,987.81
2017-11-13T09:25:27.146Z,987.81
2017-11-13T09:26:27.120Z,987.86
2017-11-13T09:27:27.097Z,987.86
2017-11-13T09:28:27.073Z,987.90
2017-11-13T09:29:27.046Z,987.95
2017-11-13T09:30:27.024Z,987.97
2017-11-13T09:31:27.020Z,988.02
2017-11-13T09:32:26.977Z,988.03
2017-11-13T09:33:26.954Z,988.09
2017-11-13T09:34:26.937Z,988.08
2017-11-13T09:35:26.910Z,988.10
2017-11-13T09:36:26.891Z,988.08
2017-11-13T09:37:26.860Z,988.10
2017-11-13T09:38:26.833Z,988.12
2017-11-13T09:39:26.810Z,988.11
2017-11-13T09:40:26.786Z,988.12
2017-11-13T09:41:26.760Z,988.10
2017-11-13T09:42:26.771Z,988.12
2017-11-13T09:43:26.717Z,988.12
2017-11-13T09:44:26.695Z,988.09
2017-11-13T09:45:26.678Z,988.05
2017-11-13T09:46:26.647Z,988.06
2017-11-13T09:47:26.624Z,988.09
2017-11-13T09:48:26.595Z,988.14
2017-11-13T09:49:26.571Z,988.10
2017-11-13T09:50:26.547Z,988.14
2017-11-13T09:51:26.529Z,988.14
2017-11-13T09:52:26.500Z,988.19
2017-11-13T09:53:26.479Z,988.20
2017-11-13T09:54:26.451Z,988.22
2017-11-13T09:55:26.439Z,988.22
2017-11-13T09:56:26.403Z,988.18
2017-11-13T09:57:26.386Z,988.17
2017-11-13T09:58:26.361Z,988.13
2017-11-13T09:59:26.343Z,988.18
2017-11-13T10:00:26.309Z,988.17
2017-11-13T10:01:26.286Z,988.20
2017-11-13T10:02:26.267Z,988.18
2017-11-13T10:03:26.241Z,988.17
2017-11-13T10:04:26.217Z,988.21
2017-11-13T10:05:26.190Z,988.20
2017-11-13T10:06:26.177Z,988.28
2017-11-13T10:07:26.150Z,988.31
2017-11-13T10:08:26.125Z,988.33
2017-11-13T10:09:26.101Z,988.33
2017-11-13T10:10:26.071Z,988.34
2017-11-13T10:11:26.048Z,988.36
2017-11-13T10:12:26.037Z,988.36
2017-11-13T10:13:26.002Z,988.30
2017-11-13T10:14:25.978Z,988.30
2017-11-13T10:15:25.952Z,988.29
2017-11-13T10:16:25.936Z,988.31
2017-11-13T10:17:25.926Z,988.27
2017-11-13T10:18:25.886Z,988.28
2017-11-13T10:19:25.860Z,988.27
2017-11-13T10:20:25.837Z,988.26
2017-11-13T10:21:25.879Z,988.25
2017-11-13T10:22:25.793Z,988.27
2017-11-13T10:23:25.763Z,988.27
2017-11-13T10:24:25.742Z,988.30
2017-11-13T10:25:25.717Z,988.31
2017-11-13T10:26:25.697Z,988.25
2017-11-13T10:27:25.673Z,988.23
2017-11-13T10:28:25.652Z,988.25
2017-11-13T10:29:25.639Z,988.30
2017-11-13T10:30:25.600Z,988.28
2017-11-13T10:31:25.579Z,988.30
2017-11-13T10:32:25.559Z,988.34
2017-11-13T10:33:25.529Z,988.33
2017-11-13T10:34:25.518Z,988.36
2017-11-13T10:35:25.490Z,988.34
2017-11-13T10:36:25.465Z,988.36
2017-11-13T10:37:46.440Z,988.40
2017-11-13T10:38:25.419Z,988.42
2017-11-13T10:39:25.391Z,988.40
2017-11-13T10:40:25.371Z,988.38
2017-11-13T10:41:25.346Z,988.41
2017-11-13T10:42:25.320Z,988.42
2017-11-13T10:43:25.303Z,988.43
2017-11-13T10:44:25.275Z,988.45
2017-11-13T10:45:25.254Z,988.45
2017-11-13T10:46:25.228Z,988.44
2017-11-13T10:47:25.211Z,988.43
2017-11-13T10:48:25.187Z,988.44
2017-11-13T10:49:25.157Z,988.43
2017-11-13T10:50:25.135Z,988.47
2017-11-13T10:51:25.109Z,988.51
2017-11-13T10:52:25.089Z,988.55
2017-11-13T10:53:25.066Z,988.53
2017-11-13T10:54:25.041Z,988.55
2017-11-13T10:55:25.037Z,988.60
2017-11-13T10:56:25.013Z,988.59
2017-11-13T10:57:24.976Z,988.62
2017-11-13T10:58:24.948Z,988.60
2017-11-13T10:59:24.936Z,988.65
2017-11-13T11:00:24.938Z,988.58
2017-11-13T11:01:24.880Z,988.60
2017-11-13T11:02:24.854Z,988.56
2017-11-13T11:03:24.831Z,988.60
2017-11-13T11:04:24.807Z,988.64
2017-11-13T11:05:24.783Z,988.64
2017-11-13T11:06:24.762Z,988.69
2017-11-13T11:07:24.739Z,988.70
2017-11-13T11:08:24.722Z,988.69
2017-11-13T11:09:24.690Z,988.68
2017-11-13T11:10:24.671Z,988.63
2017-11-13T11:11:24.651Z,988.70
2017-11-13T11:12:24.620Z,988.72
2017-11-13T11:13:24.604Z,988.76
2017-11-13T11:14:24.574Z,988.82
2017-11-13T11:15:24.571Z,988.84
2017-11-13T11:16:24.535Z,988.87
2017-11-13T11:17:24.505Z,988.89
2017-11-13T11:18:24.488Z,988.94
2017-11-13T11:19:24.460Z,988.98
2017-11-13T11:20:24.437Z,989.04
2017-11-13T11:21:24.413Z,989.03
2017-11-13T11:22:24.390Z,989.07
2017-11-13T11:23:24.369Z,989.12
2017-11-13T11:24:24.341Z,989.15
2017-11-13T11:25:24.323Z,989.17
2017-11-13T11:26:24.302Z,989.13
2017-11-13T11:27:24.273Z,989.13
2017-11-13T11:28:24.258Z,989.17
2017-11-13T11:29:24.226Z,989.16
2017-11-13T11:30:24.202Z,989.11
2017-11-13T11:31:24.177Z,989.11
2017-11-13T11:32:24.154Z,989.15
2017-11-13T11:33:24.139Z,989.14
2017-11-13T11:34:24.109Z,989.13
2017-11-13T11:35:24.101Z,989.12
2017-11-13T11:36:24.067Z,989.15
2017-11-13T11:37:24.041Z,989.10
2017-11-13T11:38:24.044Z,989.12
2017-11-13T11:39:24.037Z,989.09
2017-11-13T11:40:23.969Z,989.05
2017-11-13T11:41:23.945Z,989.04
2017-11-13T11:42:23.920Z,989.07
2017-11-13T11:43:23.908Z,989.06
2017-11-13T11:44:23.890Z,989.05
2017-11-13T11:45:23.857Z,989.08
2017-11-13T11:46:23.828Z,989.15
2017-11-13T11:47:23.805Z,989.16
2017-11-13T11:48:23.784Z,989.14
2017-11-13T11:49:23.759Z,989.18
2017-11-13T11:50:23.735Z,989.21
2017-11-13T11:51:23.711Z,989.22
2017-11-13T11:52:23.700Z,989.25
2017-11-13T11:53:23.667Z,989.31
2017-11-13T11:54:23.648Z,989.26
2017-11-13T11:55:23.625Z,989.27
2017-11-13T11:56:23.595Z,989.27
2017-11-13T11:57:23.572Z,989.31
2017-11-13T11:58:23.548Z,989.29
2017-11-13T11:59:23.527Z,989.28
2017-11-13T12:00:23.504Z,989.33
2017-11-13T12:01:23.477Z,989.31
2017-11-13T12:02:23.458Z,989.33
2017-11-13T12:03:23.436Z,989.30
2017-11-13T12:04:23.414Z,989.27
2017-11-13T12:05:23.387Z,989.28
2017-11-13T12:06:23.364Z,989.33
2017-11-13T12:07:23.341Z,989.31
2017-11-13T12:08:23.316Z,989.36
2017-11-13T12:09:23.294Z,989.31
2017-11-13T12:10:23.277Z,989.29
2017-11-13T12:11:23.246Z,989.32
2017-11-13T12:12:23.232Z,989.32
2017-11-13T12:13:23.210Z,989.36
2017-11-13T12:14:23.180Z,989.34
2017-11-13T12:15:23.152Z,989.35
2017-11-13T12:16:23.131Z,989.32
2017-11-13T12:17:23.109Z,989.30
2017-11-13T12:18:23.123Z,989.27
2017-11-13T12:19:23.063Z,989.25
2017-11-13T12:20:23.040Z,989.31
2017-11-13T12:21:23.023Z,989.32
2017-11-13T12:22:22.996Z,989.32
2017-11-13T12:23:22.969Z,989.30
2017-11-13T12:24:22.946Z,989.34
2017-11-13T12:25:22.920Z,989.36
2017-11-13T12:26:22.900Z,989.40
2017-11-13T12:27:22.881Z,989.43
2017-11-13T12:28:22.852Z,989.43